sensor_id;sensor_type;location;lat;lon;timestamp;pressure;altitude;pressure_sealevel;temperature;humidity
10115;BME280;74399;43.260;27.812;2023-12-28T00:00:35;101384.38;;;6.87;90.44
10115;BME280;74399;43.260;27.812;2023-12-28T00:03:20;101380.25;;;7.22;88.89
10115;BME280;74399;43.260;27.812;2023-12-28T00:06:04;101383.91;;;6.63;89.29
10115;BME280;74399;43.260;27.812;2023-12-28T00:08:48;101391.41;;;6.30;90.72
10115;BME280;74399;43.260;27.812;2023-12-28T00:11:47;101385.34;;;6.81;89.62
10115;BME280;74399;43.260;27.812;2023-12-28T00:14:31;101386.31;;;6.76;88.87
10115;BME280;74399;43.260;27.812;2023-12-28T00:17:15;101388.16;;;7.19;87.69
10115;BME280;74399;43.260;27.812;2023-12-28T00:19:59;101394.22;;;7.24;85.34
10115;BME280;74399;43.260;27.812;2023-12-28T00:22:44;101403.44;;;6.98;87.25
10115;BME280;74399;43.260;27.812;2023-12-28T00:25:28;101395.94;;;7.25;87.88
10115;BME280;74399;43.260;27.812;2023-12-28T00:28:14;101403.22;;;7.11;87.14
10115;BME280;74399;43.260;27.812;2023-12-28T00:30:58;101409.31;;;7.58;87.88
10115;BME280;74399;43.260;27.812;2023-12-28T00:33:42;101408.44;;;6.62;88.70
10115;BME280;74399;43.260;27.812;2023-12-28T00:36:26;101405.53;;;6.78;87.93
10115;BME280;74399;43.260;27.812;2023-12-28T00:39:10;101416.44;;;7.04;90.57
10115;BME280;74399;43.260;27.812;2023-12-28T00:41:54;101411.56;;;6.83;87.82
10115;BME280;74399;43.260;27.812;2023-12-28T00:44:40;101417.50;;;6.96;89.31
10115;BME280;74399;43.260;27.812;2023-12-28T00:47:24;101413.78;;;7.08;87.24
10115;BME280;74399;43.260;27.812;2023-12-28T00:50:08;101399.53;;;6.69;88.42
10115;BME280;74399;43.260;27.812;2023-12-28T00:52:54;101407.91;;;6.38;89.36
10115;BME280;74399;43.260;27.812;2023-12-28T00:55:38;101401.34;;;6.10;91.31
10115;BME280;74399;43.260;27.812;2023-12-28T00:58:22;101404.34;;;6.43;91.27
10115;BME280;74399;43.260;27.812;2023-12-28T01:01:07;101400.41;;;6.71;90.90
10115;BME280;74399;43.260;27.812;2023-12-28T01:03:54;101392.66;;;6.64;92.61
10115;BME280;74399;43.260;27.812;2023-12-28T01:06:39;101403.84;;;6.19;95.28
10115;BME280;74399;43.260;27.812;2023-12-28T01:09:23;101406.47;;;6.19;92.25
10115;BME280;74399;43.260;27.812;2023-12-28T01:12:07;101404.44;;;6.38;93.23
10115;BME280;74399;43.260;27.812;2023-12-28T01:14:51;101410.81;;;6.18;91.77
10115;BME280;74399;43.260;27.812;2023-12-28T01:17:37;101404.59;;;6.27;90.67
10115;BME280;74399;43.260;27.812;2023-12-28T01:20:21;101396.69;;;6.29;92.80
10115;BME280;74399;43.260;27.812;2023-12-28T01:23:05;101396.88;;;6.16;93.58
10115;BME280;74399;43.260;27.812;2023-12-28T01:25:49;101399.75;;;5.96;93.10
10115;BME280;74399;43.260;27.812;2023-12-28T01:28:33;101393.34;;;6.17;92.29
10115;BME280;74399;43.260;27.812;2023-12-28T01:31:17;101388.50;;;5.88;93.22
10115;BME280;74399;43.260;27.812;2023-12-28T01:34:03;101386.63;;;5.98;91.05
10115;BME280;74399;43.260;27.812;2023-12-28T01:36:48;101379.84;;;5.80;92.22
10115;BME280;74399;43.260;27.812;2023-12-28T01:39:32;101381.88;;;5.58;94.25
10115;BME280;74399;43.260;27.812;2023-12-28T01:42:16;101385.69;;;5.29;95.51
10115;BME280;74399;43.260;27.812;2023-12-28T01:45:00;101385.22;;;5.72;94.24
10115;BME280;74399;43.260;27.812;2023-12-28T01:47:45;101384.81;;;6.03;92.77
10115;BME280;74399;43.260;27.812;2023-12-28T01:50:32;101384.72;;;6.09;91.17
10115;BME280;74399;43.260;27.812;2023-12-28T01:53:17;101382.50;;;5.78;94.65
10115;BME280;74399;43.260;27.812;2023-12-28T01:56:02;101381.06;;;5.52;93.99
10115;BME280;74399;43.260;27.812;2023-12-28T01:58:48;101385.69;;;6.03;91.74
10115;BME280;74399;43.260;27.812;2023-12-28T02:01:33;101389.31;;;5.90;92.00
10115;BME280;74399;43.260;27.812;2023-12-28T02:04:17;101380.38;;;6.07;92.34
10115;BME280;74399;43.260;27.812;2023-12-28T02:07:11;101381.41;;;6.56;90.58
10115;BME280;74399;43.260;27.812;2023-12-28T02:09:56;101382.44;;;5.83;90.62
10115;BME280;74399;43.260;27.812;2023-12-28T02:12:41;101393.47;;;6.10;92.17
10115;BME280;74399;43.260;27.812;2023-12-28T02:15:25;101389.75;;;6.25;90.61
10115;BME280;74399;43.260;27.812;2023-12-28T02:18:12;101388.72;;;6.36;90.68
10115;BME280;74399;43.260;27.812;2023-12-28T02:20:57;101397.53;;;6.29;89.99
10115;BME280;74399;43.260;27.812;2023-12-28T02:23:47;101394.91;;;6.29;90.72
10115;BME280;74399;43.260;27.812;2023-12-28T02:26:33;101408.22;;;6.17;91.36
10115;BME280;74399;43.260;27.812;2023-12-28T02:29:17;101410.59;;;6.35;90.06
10115;BME280;74399;43.260;27.812;2023-12-28T02:32:04;101413.94;;;6.45;90.27
10115;BME280;74399;43.260;27.812;2023-12-28T02:34:55;101416.66;;;6.41;90.16
10115;BME280;74399;43.260;27.812;2023-12-28T02:37:48;101412.06;;;6.52;90.85
10115;BME280;74399;43.260;27.812;2023-12-28T02:40:37;101411.66;;;6.22;91.28
10115;BME280;74399;43.260;27.812;2023-12-28T02:43:22;101413.91;;;6.47;90.46
10115;BME280;74399;43.260;27.812;2023-12-28T02:46:07;101418.28;;;6.48;90.39
10115;BME280;74399;43.260;27.812;2023-12-28T02:48:51;101412.97;;;6.51;89.04
10115;BME280;74399;43.260;27.812;2023-12-28T02:51:40;101424.28;;;5.92;91.94
10115;BME280;74399;43.260;27.812;2023-12-28T02:54:25;101419.59;;;6.16;91.72
10115;BME280;74399;43.260;27.812;2023-12-28T02:57:09;101411.59;;;6.25;90.36
10115;BME280;74399;43.260;27.812;2023-12-28T02:59:55;101414.22;;;6.28;90.22
10115;BME280;74399;43.260;27.812;2023-12-28T03:02:44;101406.81;;;5.91;92.14
10115;BME280;74399;43.260;27.812;2023-12-28T03:05:28;101405.91;;;5.91;92.74
10115;BME280;74399;43.260;27.812;2023-12-28T03:08:12;101398.88;;;5.99;92.06
10115;BME280;74399;43.260;27.812;2023-12-28T03:10:57;101402.00;;;6.26;91.64
10115;BME280;74399;43.260;27.812;2023-12-28T03:13:41;101409.22;;;6.10;91.27
10115;BME280;74399;43.260;27.812;2023-12-28T03:16:26;101407.41;;;6.12;91.24
10115;BME280;74399;43.260;27.812;2023-12-28T03:19:12;101411.66;;;6.22;90.45
10115;BME280;74399;43.260;27.812;2023-12-28T03:21:56;101416.06;;;6.20;90.84
10115;BME280;74399;43.260;27.812;2023-12-28T03:24:40;101406.59;;;6.10;91.61
10115;BME280;74399;43.260;27.812;2023-12-28T03:27:24;101409.91;;;6.21;91.13
10115;BME280;74399;43.260;27.812;2023-12-28T03:30:11;101410.03;;;6.12;91.62
10115;BME280;74399;43.260;27.812;2023-12-28T03:32:56;101409.72;;;6.33;90.18
10115;BME280;74399;43.260;27.812;2023-12-28T03:35:40;101407.06;;;6.38;90.38
10115;BME280;74399;43.260;27.812;2023-12-28T03:38:24;101405.31;;;6.37;90.45
10115;BME280;74399;43.260;27.812;2023-12-28T03:41:16;101408.28;;;6.14;90.61
10115;BME280;74399;43.260;27.812;2023-12-28T03:44:00;101405.06;;;5.14;91.93
10115;BME280;74399;43.260;27.812;2023-12-28T03:46:44;101405.28;;;4.91;95.09
10115;BME280;74399;43.260;27.812;2023-12-28T03:49:29;101408.41;;;4.29;98.91
10115;BME280;74399;43.260;27.812;2023-12-28T03:52:13;101407.63;;;4.13;100.00
10115;BME280;74399;43.260;27.812;2023-12-28T03:54:58;101406.31;;;4.73;100.00
10115;BME280;74399;43.260;27.812;2023-12-28T03:57:42;101407.00;;;4.95;97.55
10115;BME280;74399;43.260;27.812;2023-12-28T04:00:29;101401.22;;;4.56;97.94
10115;BME280;74399;43.260;27.812;2023-12-28T04:03:13;101404.63;;;4.65;98.16
10115;BME280;74399;43.260;27.812;2023-12-28T04:05:59;101391.50;;;4.72;97.49
10115;BME280;74399;43.260;27.812;2023-12-28T04:08:43;101394.91;;;4.81;96.75
10115;BME280;74399;43.260;27.812;2023-12-28T04:11:27;101384.53;;;4.67;97.05
10115;BME280;74399;43.260;27.812;2023-12-28T04:14:12;101396.09;;;4.45;96.38
10115;BME280;74399;43.260;27.812;2023-12-28T04:16:56;101401.25;;;4.51;97.68
10115;BME280;74399;43.260;27.812;2023-12-28T04:19:40;101396.88;;;4.53;99.39
10115;BME280;74399;43.260;27.812;2023-12-28T04:22:26;101401.06;;;4.76;96.53
10115;BME280;74399;43.260;27.812;2023-12-28T04:25:10;101398.75;;;4.37;97.16
10115;BME280;74399;43.260;27.812;2023-12-28T04:27:54;101396.53;;;3.61;100.00
10115;BME280;74399;43.260;27.812;2023-12-28T04:30:39;101393.94;;;3.58;100.00
10115;BME280;74399;43.260;27.812;2023-12-28T04:33:23;101389.47;;;3.85;100.00
10115;BME280;74399;43.260;27.812;2023-12-28T04:36:07;101391.84;;;4.20;98.07
10115;BME280;74399;43.260;27.812;2023-12-28T04:38:53;101387.50;;;4.21;98.09
10115;BME280;74399;43.260;27.812;2023-12-28T04:41:37;101387.69;;;3.90;99.46
10115;BME280;74399;43.260;27.812;2023-12-28T04:44:21;101394.03;;;3.29;100.00
10115;BME280;74399;43.260;27.812;2023-12-28T04:47:05;101397.47;;;3.37;100.00
10115;BME280;74399;43.260;27.812;2023-12-28T04:49:50;101398.06;;;4.04;99.33
10115;BME280;74399;43.260;27.812;2023-12-28T04:52:35;101407.88;;;3.49;100.00
10115;BME280;74399;43.260;27.812;2023-12-28T04:55:20;101393.91;;;3.63;100.00
10115;BME280;74399;43.260;27.812;2023-12-28T04:58:06;101391.28;;;3.69;99.36
10115;BME280;74399;43.260;27.812;2023-12-28T05:00:50;101394.84;;;3.39;100.00
10115;BME280;74399;43.260;27.812;2023-12-28T05:03:34;101399.19;;;3.43;100.00
10115;BME280;74399;43.260;27.812;2023-12-28T05:06:19;101399.13;;;3.63;100.00
10115;BME280;74399;43.260;27.812;2023-12-28T05:09:03;101386.81;;;3.93;99.71
10115;BME280;74399;43.260;27.812;2023-12-28T05:11:49;101386.78;;;4.02;98.75
10115;BME280;74399;43.260;27.812;2023-12-28T05:14:33;101386.44;;;4.48;96.35
10115;BME280;74399;43.260;27.812;2023-12-28T05:17:17;101396.16;;;4.32;97.10
10115;BME280;74399;43.260;27.812;2023-12-28T05:20:01;101389.25;;;4.19;97.34
10115;BME280;74399;43.260;27.812;2023-12-28T05:22:46;101390.19;;;4.07;97.17
10115;BME280;74399;43.260;27.812;2023-12-28T05:25:31;101396.09;;;4.40;96.47
10115;BME280;74399;43.260;27.812;2023-12-28T05:28:16;101392.59;;;4.41;95.87
10115;BME280;74399;43.260;27.812;2023-12-28T05:31:00;101392.69;;;4.30;96.75
10115;BME280;74399;43.260;27.812;2023-12-28T05:33:44;101389.53;;;3.71;98.13
10115;BME280;74399;43.260;27.812;2023-12-28T05:36:28;101403.47;;;3.65;99.81
10115;BME280;74399;43.260;27.812;2023-12-28T05:39:12;101397.03;;;4.34;96.26
10115;BME280;74399;43.260;27.812;2023-12-28T05:41:57;101406.53;;;4.43;95.59
10115;BME280;74399;43.260;27.812;2023-12-28T05:44:42;101394.34;;;4.39;95.07
10115;BME280;74399;43.260;27.812;2023-12-28T05:47:26;101394.53;;;4.16;96.11
10115;BME280;74399;43.260;27.812;2023-12-28T05:50:11;101397.19;;;4.07;96.27
10115;BME280;74399;43.260;27.812;2023-12-28T05:52:55;101400.84;;;3.73;99.35
10115;BME280;74399;43.260;27.812;2023-12-28T05:55:39;101407.03;;;3.49;100.00
10115;BME280;74399;43.260;27.812;2023-12-28T05:58:23;101407.84;;;3.71;99.66
10115;BME280;74399;43.260;27.812;2023-12-28T06:01:08;101404.13;;;4.12;97.74
10115;BME280;74399;43.260;27.812;2023-12-28T06:03:52;101413.81;;;3.93;98.12
10115;BME280;74399;43.260;27.812;2023-12-28T06:06:37;101412.97;;;3.86;98.62
10115;BME280;74399;43.260;27.812;2023-12-28T06:09:21;101413.59;;;4.33;98.12
10115;BME280;74399;43.260;27.812;2023-12-28T06:12:06;101420.31;;;4.68;95.80
10115;BME280;74399;43.260;27.812;2023-12-28T06:14:50;101417.03;;;4.39;96.40
10115;BME280;74399;43.260;27.812;2023-12-28T06:17:35;101415.47;;;4.10;97.06
10115;BME280;74399;43.260;27.812;2023-12-28T06:20:19;101408.28;;;4.43;97.83
10115;BME280;74399;43.260;27.812;2023-12-28T06:23:03;101405.75;;;4.27;96.66
10115;BME280;74399;43.260;27.812;2023-12-28T06:25:47;101406.66;;;4.26;97.65
10115;BME280;74399;43.260;27.812;2023-12-28T06:28:31;101408.47;;;4.13;99.00
10115;BME280;74399;43.260;27.812;2023-12-28T06:31:15;101406.59;;;4.39;97.34
10115;BME280;74399;43.260;27.812;2023-12-28T06:34:01;101400.53;;;4.30;99.02
10115;BME280;74399;43.260;27.812;2023-12-28T06:36:45;101414.44;;;4.34;99.13
10115;BME280;74399;43.260;27.812;2023-12-28T06:39:29;101414.97;;;4.82;97.64
10115;BME280;74399;43.260;27.812;2023-12-28T06:42:14;101406.88;;;5.09;97.85
10115;BME280;74399;43.260;27.812;2023-12-28T06:44:58;101420.59;;;5.34;96.17
10115;BME280;74399;43.260;27.812;2023-12-28T06:47:43;101404.63;;;5.54;94.97
10115;BME280;74399;43.260;27.812;2023-12-28T06:50:28;101401.69;;;5.82;95.13
10115;BME280;74399;43.260;27.812;2023-12-28T06:53:12;101408.56;;;5.89;95.12
10115;BME280;74399;43.260;27.812;2023-12-28T06:55:56;101409.78;;;6.30;93.80
10115;BME280;74399;43.260;27.812;2023-12-28T06:58:40;101409.88;;;6.24;93.66
10115;BME280;74399;43.260;27.812;2023-12-28T07:01:25;101415.03;;;6.30;93.61
10115;BME280;74399;43.260;27.812;2023-12-28T07:04:09;101410.28;;;6.56;94.03
10115;BME280;74399;43.260;27.812;2023-12-28T07:06:54;101408.03;;;6.29;94.54
10115;BME280;74399;43.260;27.812;2023-12-28T07:09:39;101398.44;;;6.83;92.81
10115;BME280;74399;43.260;27.812;2023-12-28T07:12:23;101397.34;;;6.96;92.64
10115;BME280;74399;43.260;27.812;2023-12-28T07:15:08;101400.69;;;7.04;91.63
10115;BME280;74399;43.260;27.812;2023-12-28T07:17:56;101392.72;;;7.11;91.53
10115;BME280;74399;43.260;27.812;2023-12-28T07:20:40;101401.22;;;7.25;93.35
10115;BME280;74399;43.260;27.812;2023-12-28T07:23:26;101402.81;;;7.32;92.49
10115;BME280;74399;43.260;27.812;2023-12-28T07:26:10;101404.38;;;7.43;92.74
10115;BME280;74399;43.260;27.812;2023-12-28T07:28:54;101412.19;;;7.46;92.65
10115;BME280;74399;43.260;27.812;2023-12-28T07:31:38;101416.38;;;7.56;93.60
10115;BME280;74399;43.260;27.812;2023-12-28T07:34:22;101410.19;;;7.59;93.82
10115;BME280;74399;43.260;27.812;2023-12-28T07:37:06;101400.34;;;7.68;91.32
10115;BME280;74399;43.260;27.812;2023-12-28T07:39:52;101400.44;;;7.65;91.71
10115;BME280;74399;43.260;27.812;2023-12-28T07:42:37;101404.59;;;7.74;90.98
10115;BME280;74399;43.260;27.812;2023-12-28T07:45:21;101410.94;;;7.65;89.94
10115;BME280;74399;43.260;27.812;2023-12-28T07:48:07;101415.75;;;7.87;90.98
10115;BME280;74399;43.260;27.812;2023-12-28T07:50:51;101416.53;;;7.92;90.74
10115;BME280;74399;43.260;27.812;2023-12-28T07:53:35;101412.06;;;7.94;90.21
10115;BME280;74399;43.260;27.812;2023-12-28T07:56:21;101411.91;;;8.02;90.37
10115;BME280;74399;43.260;27.812;2023-12-28T07:59:05;101423.06;;;8.15;87.84
10115;BME280;74399;43.260;27.812;2023-12-28T08:01:51;101432.53;;;8.22;87.42
10115;BME280;74399;43.260;27.812;2023-12-28T08:04:35;101432.31;;;8.31;85.45
10115;BME280;74399;43.260;27.812;2023-12-28T08:07:19;101433.09;;;8.36;83.50
10115;BME280;74399;43.260;27.812;2023-12-28T08:10:04;101426.75;;;8.47;83.19
10115;BME280;74399;43.260;27.812;2023-12-28T08:12:49;101425.63;;;8.57;83.44
10115;BME280;74399;43.260;27.812;2023-12-28T08:15:33;101435.94;;;8.66;81.89
10115;BME280;74399;43.260;27.812;2023-12-28T08:18:17;101429.59;;;8.75;82.99
10115;BME280;74399;43.260;27.812;2023-12-28T08:21:02;101425.94;;;8.81;81.75
10115;BME280;74399;43.260;27.812;2023-12-28T08:23:46;101418.09;;;8.78;81.97
10115;BME280;74399;43.260;27.812;2023-12-28T08:26:30;101414.53;;;8.80;81.90
10115;BME280;74399;43.260;27.812;2023-12-28T08:29:16;101425.78;;;8.87;80.44
10115;BME280;74399;43.260;27.812;2023-12-28T08:32:00;101416.63;;;9.02;81.16
10115;BME280;74399;43.260;27.812;2023-12-28T08:34:44;101419.16;;;9.05;82.01
10115;BME280;74399;43.260;27.812;2023-12-28T08:37:30;101409.78;;;9.28;82.03
10115;BME280;74399;43.260;27.812;2023-12-28T08:40:15;101407.28;;;9.23;81.29
10115;BME280;74399;43.260;27.812;2023-12-28T08:42:59;101401.25;;;9.18;80.71
10115;BME280;74399;43.260;27.812;2023-12-28T08:45:44;101401.91;;;9.26;80.56
10115;BME280;74399;43.260;27.812;2023-12-28T08:48:28;101399.69;;;9.44;79.47
10115;BME280;74399;43.260;27.812;2023-12-28T08:51:12;101391.81;;;9.42;81.59
10115;BME280;74399;43.260;27.812;2023-12-28T08:53:57;101393.88;;;9.62;79.35
10115;BME280;74399;43.260;27.812;2023-12-28T08:56:41;101392.19;;;9.60;79.65
10115;BME280;74399;43.260;27.812;2023-12-28T08:59:26;101383.91;;;9.72;79.97
10115;BME280;74399;43.260;27.812;2023-12-28T09:02:11;101384.88;;;9.69;79.26
10115;BME280;74399;43.260;27.812;2023-12-28T09:04:55;101367.22;;;9.71;78.46
10115;BME280;74399;43.260;27.812;2023-12-28T09:07:39;101368.41;;;9.61;79.37
10115;BME280;74399;43.260;27.812;2023-12-28T09:10:25;101370.78;;;9.70;79.49
10115;BME280;74399;43.260;27.812;2023-12-28T09:13:14;101360.94;;;9.76;79.58
10115;BME280;74399;43.260;27.812;2023-12-28T09:15:58;101355.22;;;9.61;79.78
10115;BME280;74399;43.260;27.812;2023-12-28T09:18:48;101351.75;;;9.89;79.36
10115;BME280;74399;43.260;27.812;2023-12-28T09:21:32;101341.53;;;10.06;78.87
10115;BME280;74399;43.260;27.812;2023-12-28T09:24:16;101339.69;;;10.09;77.90
10115;BME280;74399;43.260;27.812;2023-12-28T09:27:01;101335.94;;;10.16;77.40
10115;BME280;74399;43.260;27.812;2023-12-28T09:29:45;101331.69;;;10.12;77.83
10115;BME280;74399;43.260;27.812;2023-12-28T09:32:29;101326.59;;;10.32;77.11
10115;BME280;74399;43.260;27.812;2023-12-28T09:35:14;101318.44;;;10.13;77.35
10115;BME280;74399;43.260;27.812;2023-12-28T09:37:58;101312.13;;;10.17;77.22
10115;BME280;74399;43.260;27.812;2023-12-28T09:40:43;101307.06;;;10.39;77.22
10115;BME280;74399;43.260;27.812;2023-12-28T09:43:31;101302.97;;;10.56;77.17
10115;BME280;74399;43.260;27.812;2023-12-28T09:46:19;101292.41;;;10.56;76.86
10115;BME280;74399;43.260;27.812;2023-12-28T09:49:04;101285.56;;;10.49;76.10
10115;BME280;74399;43.260;27.812;2023-12-28T09:51:49;101280.22;;;10.52;77.20
10115;BME280;74399;43.260;27.812;2023-12-28T09:54:34;101288.22;;;10.76;76.79
10115;BME280;74399;43.260;27.812;2023-12-28T09:57:19;101280.53;;;10.68;76.67
10115;BME280;74399;43.260;27.812;2023-12-28T10:00:05;101281.78;;;10.83;75.48
10115;BME280;74399;43.260;27.812;2023-12-28T10:02:53;101273.84;;;10.83;74.42
10115;BME280;74399;43.260;27.812;2023-12-28T10:05:37;101273.63;;;10.89;74.07
10115;BME280;74399;43.260;27.812;2023-12-28T10:08:23;101273.06;;;11.04;74.75
10115;BME280;74399;43.260;27.812;2023-12-28T10:11:07;101270.63;;;10.98;74.39
10115;BME280;74399;43.260;27.812;2023-12-28T10:13:53;101259.69;;;11.09;74.55
10115;BME280;74399;43.260;27.812;2023-12-28T10:16:41;101256.78;;;11.15;74.77
10115;BME280;74399;43.260;27.812;2023-12-28T10:19:25;101254.97;;;11.17;74.57
10115;BME280;74399;43.260;27.812;2023-12-28T10:22:09;101248.81;;;11.17;73.78
10115;BME280;74399;43.260;27.812;2023-12-28T10:24:54;101239.38;;;11.10;73.78
10115;BME280;74399;43.260;27.812;2023-12-28T10:27:39;101247.41;;;11.30;72.68
10115;BME280;74399;43.260;27.812;2023-12-28T10:30:24;101244.75;;;11.54;71.30
10115;BME280;74399;43.260;27.812;2023-12-28T10:33:09;101238.00;;;11.45;71.63
10115;BME280;74399;43.260;27.812;2023-12-28T10:35:57;101234.56;;;11.67;70.58
10115;BME280;74399;43.260;27.812;2023-12-28T10:38:43;101228.91;;;11.74;70.29
10115;BME280;74399;43.260;27.812;2023-12-28T10:41:30;101227.09;;;11.77;69.94
10115;BME280;74399;43.260;27.812;2023-12-28T10:44:20;101226.59;;;11.67;70.13
10115;BME280;74399;43.260;27.812;2023-12-28T10:47:08;101215.44;;;11.81;70.14
10115;BME280;74399;43.260;27.812;2023-12-28T10:50:02;101211.38;;;11.72;70.04
10115;BME280;74399;43.260;27.812;2023-12-28T10:52:51;101210.91;;;11.84;69.60
10115;BME280;74399;43.260;27.812;2023-12-28T10:55:45;101199.94;;;11.94;69.65
10115;BME280;74399;43.260;27.812;2023-12-28T10:58:40;101208.38;;;12.24;69.04
10115;BME280;74399;43.260;27.812;2023-12-28T11:01:31;101200.44;;;12.03;69.43
10115;BME280;74399;43.260;27.812;2023-12-28T11:04:21;101192.41;;;12.05;68.66
10115;BME280;74399;43.260;27.812;2023-12-28T11:07:09;101188.66;;;12.31;67.68
10115;BME280;74399;43.260;27.812;2023-12-28T11:09:54;101191.94;;;12.16;68.47
10115;BME280;74399;43.260;27.812;2023-12-28T11:12:39;101183.88;;;12.19;68.80
10115;BME280;74399;43.260;27.812;2023-12-28T11:15:26;101185.59;;;12.20;68.35
10115;BME280;74399;43.260;27.812;2023-12-28T11:18:10;101184.22;;;12.32;69.21
10115;BME280;74399;43.260;27.812;2023-12-28T11:20:56;101173.09;;;12.23;68.85
10115;BME280;74399;43.260;27.812;2023-12-28T11:23:40;101172.38;;;12.40;68.36
10115;BME280;74399;43.260;27.812;2023-12-28T11:26:25;101173.81;;;12.48;68.43
10115;BME280;74399;43.260;27.812;2023-12-28T11:29:10;101163.94;;;12.51;68.12
10115;BME280;74399;43.260;27.812;2023-12-28T11:31:57;101166.00;;;12.45;67.71
10115;BME280;74399;43.260;27.812;2023-12-28T11:34:41;101162.22;;;12.69;67.08
10115;BME280;74399;43.260;27.812;2023-12-28T11:37:26;101154.81;;;12.38;67.69
10115;BME280;74399;43.260;27.812;2023-12-28T11:40:12;101154.97;;;12.54;67.56
10115;BME280;74399;43.260;27.812;2023-12-28T11:43:01;101151.69;;;12.28;68.08
10115;BME280;74399;43.260;27.812;2023-12-28T11:45:50;101149.63;;;12.55;66.64
10115;BME280;74399;43.260;27.812;2023-12-28T11:48:36;101148.63;;;12.58;66.57
10115;BME280;74399;43.260;27.812;2023-12-28T11:51:20;101132.16;;;12.70;66.16
10115;BME280;74399;43.260;27.812;2023-12-28T11:54:04;101132.97;;;12.52;67.79
10115;BME280;74399;43.260;27.812;2023-12-28T11:56:48;101129.47;;;12.51;66.61
10115;BME280;74399;43.260;27.812;2023-12-28T11:59:32;101130.91;;;12.78;65.42
10115;BME280;74399;43.260;27.812;2023-12-28T12:02:17;101129.25;;;12.75;64.96
10115;BME280;74399;43.260;27.812;2023-12-28T12:05:04;101111.00;;;12.88;64.72
10115;BME280;74399;43.260;27.812;2023-12-28T12:07:50;101106.69;;;13.04;64.75
10115;BME280;74399;43.260;27.812;2023-12-28T12:10:34;101105.34;;;12.96;64.76
10115;BME280;74399;43.260;27.812;2023-12-28T12:13:18;101102.34;;;13.03;65.11
10115;BME280;74399;43.260;27.812;2023-12-28T12:16:04;101093.28;;;13.07;63.72
10115;BME280;74399;43.260;27.812;2023-12-28T12:18:49;101090.13;;;12.99;64.01
10115;BME280;74399;43.260;27.812;2023-12-28T12:21:35;101085.53;;;13.03;63.57
10115;BME280;74399;43.260;27.812;2023-12-28T12:24:19;101085.25;;;13.09;65.94
10115;BME280;74399;43.260;27.812;2023-12-28T12:27:04;101065.31;;;13.00;67.31
10115;BME280;74399;43.260;27.812;2023-12-28T12:29:48;101073.72;;;13.10;66.66
10115;BME280;74399;43.260;27.812;2023-12-28T12:32:33;101076.50;;;13.07;66.95
10115;BME280;74399;43.260;27.812;2023-12-28T12:35:19;101074.38;;;12.96;67.60
10115;BME280;74399;43.260;27.812;2023-12-28T12:38:06;101069.34;;;13.09;67.00
10115;BME280;74399;43.260;27.812;2023-12-28T12:40:51;101064.25;;;13.04;66.63
10115;BME280;74399;43.260;27.812;2023-12-28T12:43:35;101069.91;;;13.16;66.20
10115;BME280;74399;43.260;27.812;2023-12-28T12:46:19;101056.47;;;13.19;66.29
10115;BME280;74399;43.260;27.812;2023-12-28T12:49:05;101050.41;;;12.98;66.43
10115;BME280;74399;43.260;27.812;2023-12-28T12:51:50;101053.38;;;12.91;67.15
10115;BME280;74399;43.260;27.812;2023-12-28T12:54:35;101051.81;;;12.87;67.95
10115;BME280;74399;43.260;27.812;2023-12-28T12:57:20;101048.41;;;13.03;67.90
10115;BME280;74399;43.260;27.812;2023-12-28T13:00:05;101053.53;;;13.06;67.70
10115;BME280;74399;43.260;27.812;2023-12-28T13:02:51;101045.50;;;12.90;68.17
10115;BME280;74399;43.260;27.812;2023-12-28T13:05:36;101052.66;;;12.88;69.20
10115;BME280;74399;43.260;27.812;2023-12-28T13:08:20;101050.56;;;12.95;68.64
10115;BME280;74399;43.260;27.812;2023-12-28T13:11:05;101039.41;;;12.88;68.45
10115;BME280;74399;43.260;27.812;2023-12-28T13:13:53;101039.25;;;12.91;68.62
10115;BME280;74399;43.260;27.812;2023-12-28T13:16:37;101041.72;;;12.77;68.53
10115;BME280;74399;43.260;27.812;2023-12-28T13:19:21;101033.84;;;12.56;69.37
10115;BME280;74399;43.260;27.812;2023-12-28T13:22:05;101036.06;;;12.46;69.74
10115;BME280;74399;43.260;27.812;2023-12-28T13:24:49;101038.91;;;12.41;69.50
10115;BME280;74399;43.260;27.812;2023-12-28T13:27:35;101039.44;;;12.50;68.31
10115;BME280;74399;43.260;27.812;2023-12-28T13:30:19;101030.97;;;12.41;70.34
10115;BME280;74399;43.260;27.812;2023-12-28T13:33:04;101032.25;;;12.52;68.49
10115;BME280;74399;43.260;27.812;2023-12-28T13:35:48;101037.00;;;12.45;69.01
10115;BME280;74399;43.260;27.812;2023-12-28T13:38:32;101034.69;;;12.37;69.38
10115;BME280;74399;43.260;27.812;2023-12-28T13:41:16;101026.66;;;12.20;68.31
10115;BME280;74399;43.260;27.812;2023-12-28T13:44:02;101034.25;;;12.28;68.94
10115;BME280;74399;43.260;27.812;2023-12-28T13:46:49;101022.81;;;12.27;69.64
10115;BME280;74399;43.260;27.812;2023-12-28T13:49:33;101020.50;;;12.19;69.56
10115;BME280;74399;43.260;27.812;2023-12-28T13:52:22;101020.69;;;12.15;69.37
10115;BME280;74399;43.260;27.812;2023-12-28T13:55:09;101029.03;;;12.07;69.63
10115;BME280;74399;43.260;27.812;2023-12-28T13:57:54;101025.91;;;11.97;70.25
10115;BME280;74399;43.260;27.812;2023-12-28T14:00:40;101030.00;;;11.84;71.58
10115;BME280;74399;43.260;27.812;2023-12-28T14:03:25;101020.34;;;11.83;72.19
10115;BME280;74399;43.260;27.812;2023-12-28T14:06:09;101017.81;;;11.80;71.81
10115;BME280;74399;43.260;27.812;2023-12-28T14:08:53;101016.91;;;11.60;75.38
10115;BME280;74399;43.260;27.812;2023-12-28T14:11:37;101015.44;;;11.53;75.72
10115;BME280;74399;43.260;27.812;2023-12-28T14:14:21;101013.47;;;11.37;77.33
10115;BME280;74399;43.260;27.812;2023-12-28T14:17:07;101006.03;;;11.25;78.64